Time;durP1;ratioP1;P1;durP2;ratioP2;P2;SDS_P1;SDS_P2;PMS_P1;PMS_P2;Temp;Humidity;BMP_temperature;BMP_pressure;BME280_temperature;BME280_humidity;BME280_pressure;Samples;Min_cycle;Max_cycle;Signal;HPM_P1;HPM_P2
2021/07/02 00:00:12;;;;;;;12.77;9.47;;;16.00;1.00;16.70;100623.00;;;;5052975;28;20509;-78
2021/07/02 00:02:40;;;;;;;13.97;10.03;;;15.90;1.00;16.60;100592.00;;;;5049230;28;20462;-76
2021/07/02 00:05:10;;;;;;;10.40;9.40;;;15.90;1.00;16.60;100645.00;;;;5046081;28;20488;-77
2021/07/02 00:07:39;;;;;;;11.90;9.73;;;15.80;1.00;16.50;100644.00;;;;5042973;28;20464;-76
2021/07/02 00:10:10;;;;;;;16.30;10.00;;;15.70;1.00;16.50;100627.00;;;;5031245;28;20483;-76
2021/07/02 00:12:40;;;;;;;12.33;9.60;;;15.70;1.00;16.40;100628.00;;;;5047344;28;20499;-78
2021/07/02 00:15:11;;;;;;;14.23;11.70;;;15.70;1.00;16.20;100636.00;;;;5050971;28;20475;-76
2021/07/02 00:17:40;;;;;;;14.10;11.10;;;15.60;1.00;16.30;100641.00;;;;5032578;28;20458;-76
2021/07/02 00:20:10;;;;;;;15.27;11.57;;;15.60;1.00;16.20;100634.00;;;;5033096;28;20463;-77
2021/07/02 00:22:38;;;;;;;17.70;11.60;;;15.50;1.00;16.20;100640.00;;;;5050513;28;20451;-77
2021/07/02 00:25:10;;;;;;;15.87;11.50;;;15.50;1.00;16.20;100650.00;;;;5039387;28;20602;-76
2021/07/02 00:27:40;;;;;;;14.93;11.50;;;15.50;1.00;16.20;100621.00;;;;5050341;28;20451;-77
2021/07/02 00:30:09;;;;;;;12.17;10.70;;;15.50;1.00;16.10;100623.00;;;;5033745;28;21007;-76
2021/07/02 00:32:37;;;;;;;12.73;10.63;;;15.50;1.00;16.10;100618.00;;;;5033782;28;21583;-76
2021/07/02 00:35:07;;;;;;;12.77;11.37;;;15.50;1.00;16.10;100637.00;;;;5034564;28;20472;-76
2021/07/02 00:37:36;;;;;;;13.97;11.63;;;15.40;1.00;15.90;100630.00;;;;5050425;28;20463;-77
2021/07/02 00:40:06;;;;;;;17.00;11.90;;;15.40;1.00;16.10;100646.00;;;;5033297;28;20462;-77
2021/07/02 00:42:35;;;;;;;16.20;12.43;;;15.40;1.00;16.10;100642.00;;;;5051275;28;20490;-77
2021/07/02 00:45:07;;;;;;;15.20;12.03;;;15.40;1.00;16.00;100617.00;;;;5034255;28;20480;-77
2021/07/02 00:47:36;;;;;;;14.87;12.00;;;15.40;1.00;16.10;100643.00;;;;5034533;28;20505;-77
2021/07/02 00:50:05;;;;;;;15.27;13.00;;;15.40;2.20;16.10;100635.00;;;;5034341;28;20482;-77
2021/07/02 00:52:34;;;;;;;15.30;11.67;;;15.40;2.70;16.20;100623.00;;;;5034108;28;20487;-77
2021/07/02 00:55:05;;;;;;;15.00;11.60;;;15.40;3.50;16.20;100635.00;;;;5033093;28;20469;-77
2021/07/02 00:57:35;;;;;;;14.90;12.50;;;15.40;3.50;16.20;100622.00;;;;5033890;28;20456;-76
2021/07/02 01:00:09;;;;;;;14.80;11.83;;;15.50;4.00;16.20;100607.00;;;;5039594;28;20521;-77
2021/07/02 01:02:38;;;;;;;12.33;10.97;;;15.40;4.70;16.20;100603.00;;;;5051088;28;20554;-76
2021/07/02 01:05:11;;;;;;;12.73;10.47;;;15.50;5.10;16.20;100607.00;;;;5054068;28;20511;-76
2021/07/02 01:07:43;;;;;;;13.17;11.70;;;15.50;4.70;16.10;100619.00;;;;5038164;28;21152;-76
2021/07/02 01:10:17;;;;;;;15.10;11.20;;;15.40;4.50;16.20;100603.00;;;;5034544;28;20522;-77
2021/07/02 01:12:46;;;;;;;13.50;11.93;;;15.40;5.00;16.20;100620.00;;;;5049302;28;20595;-77
2021/07/02 01:15:25;;;;;;;16.07;12.50;;;15.40;4.80;16.20;100618.00;;;;5029766;28;20566;-76
2021/07/02 01:18:05;;;;;;;14.50;13.00;;;15.50;6.00;16.30;100616.00;;;;5048199;28;20513;-77
2021/07/02 01:20:34;;;;;;;14.90;12.33;;;15.50;6.70;16.30;100591.00;;;;5050066;28;20659;-77
2021/07/02 01:23:04;;;;;;;17.90;13.00;;;15.50;8.00;16.30;100620.00;;;;5033006;28;20480;-76
2021/07/02 01:25:35;;;;;;;16.17;14.07;;;15.50;7.80;16.30;100607.00;;;;5031322;28;20472;-76
2021/07/02 01:28:09;;;;;;;13.20;10.77;;;15.50;7.50;16.20;100608.00;;;;5049748;28;20459;-77
2021/07/02 01:30:40;;;;;;;12.87;11.63;;;15.40;6.90;16.20;100618.00;;;;5048370;28;20482;-76
2021/07/02 01:33:09;;;;;;;14.43;11.60;;;15.50;6.50;16.20;100617.00;;;;5032280;28;20440;-77
2021/07/02 01:35:39;;;;;;;14.20;11.93;;;15.50;6.20;16.20;100610.00;;;;5048776;28;20593;-77
2021/07/02 01:38:11;;;;;;;15.80;12.07;;;15.50;5.90;16.20;100616.00;;;;5050431;28;20456;-77
2021/07/02 01:40:40;;;;;;;13.67;11.67;;;15.40;5.60;16.20;100610.00;;;;5032150;28;20926;-79
2021/07/02 01:43:10;;;;;;;14.57;11.70;;;15.40;6.50;16.20;100615.00;;;;5049397;28;21044;-79
2021/07/02 01:45:40;;;;;;;15.50;13.13;;;15.40;7.10;16.20;100614.00;;;;5050503;28;20526;-78
2021/07/02 01:48:10;;;;;;;17.67;13.17;;;15.40;7.80;16.20;100594.00;;;;5032381;28;21120;-78
2021/07/02 01:50:39;;;;;;;14.57;13.03;;;15.40;7.60;16.20;100594.00;;;;5032379;28;20448;-77
2021/07/02 01:53:14;;;;;;;16.17;14.47;;;15.30;8.00;16.20;100571.00;;;;5031835;28;20454;-77
2021/07/02 01:55:43;;;;;;;15.73;13.83;;;15.40;8.60;16.10;100596.00;;;;5031607;28;20502;-77
2021/07/02 01:58:13;;;;;;;14.83;11.87;;;15.30;9.10;16.10;100610.00;;;;5032240;28;20464;-78
2021/07/02 02:00:53;;;;;;;13.13;11.80;;;15.30;9.30;16.10;100609.00;;;;5045705;28;20466;-78
2021/07/02 02:03:23;;;;;;;15.80;13.60;;;15.30;8.20;16.10;100582.00;;;;5043489;28;20467;-78
2021/07/02 02:05:52;;;;;;;21.93;13.50;;;15.20;7.30;16.10;100600.00;;;;5044782;28;20479;-77
2021/07/02 02:08:22;;;;;;;14.30;12.83;;;15.20;6.10;16.10;100589.00;;;;5029616;28;20860;-76
2021/07/02 02:10:53;;;;;;;17.53;13.97;;;15.20;6.30;16.10;100592.00;;;;5030205;28;20491;-79
2021/07/02 02:13:26;;;;;;;19.23;14.50;;;15.30;6.10;16.00;100597.00;;;;5030549;28;20495;-78
2021/07/02 02:16:05;;;;;;;16.07;12.53;;;15.30;5.80;16.10;100539.00;;;;5029586;28;21016;-80
2021/07/02 02:18:34;;;;;;;15.70;13.97;;;15.30;6.10;16.10;100590.00;;;;5027137;28;20464;-78
2021/07/02 02:21:03;;;;;;;18.80;14.17;;;15.30;7.50;16.20;100593.00;;;;5047706;28;20470;-77
2021/07/02 02:23:34;;;;;;;17.67;13.77;;;15.30;8.50;16.20;100559.00;;;;5032352;28;20858;-77
2021/07/02 02:26:04;;;;;;;18.73;14.27;;;15.30;8.60;16.20;100600.00;;;;5046488;28;21031;-77
2021/07/02 02:28:33;;;;;;;17.90;14.50;;;15.30;8.60;16.20;100594.00;;;;5029089;28;20472;-77
2021/07/02 02:31:03;;;;;;;17.37;13.53;;;15.40;8.60;16.20;100590.00;;;;5030301;28;20448;-79
2021/07/02 02:33:34;;;;;;;14.83;13.13;;;15.30;8.40;16.10;100594.00;;;;5047847;28;20797;-77
2021/07/02 02:36:04;;;;;;;15.33;12.83;;;15.40;8.00;16.20;100589.00;;;;5028612;28;20503;-78
2021/07/02 02:38:35;;;;;;;16.50;13.77;;;15.30;7.10;16.20;100605.00;;;;5029299;28;20452;-77
2021/07/02 02:41:04;;;;;;;15.20;13.00;;;15.30;6.00;16.20;100483.00;;;;5032229;28;20462;-77
2021/07/02 02:43:32;;;;;;;15.13;12.90;;;15.30;5.40;16.20;100609.00;;;;5030581;28;20447;-76
2021/07/02 02:46:01;;;;;;;18.40;13.70;;;15.40;5.00;16.30;100608.00;;;;5047148;28;20483;-76
2021/07/02 02:48:30;;;;;;;17.47;14.80;;;15.40;7.30;16.30;100567.00;;;;5038246;28;20499;-76
2021/07/02 02:50:59;;;;;;;16.30;12.87;;;15.40;7.50;16.30;100570.00;;;;5047141;28;20505;-77
2021/07/02 02:53:28;;;;;;;15.80;13.87;;;15.40;7.70;16.30;100596.00;;;;5043428;28;20456;-76
2021/07/02 02:55:57;;;;;;;15.03;12.10;;;15.40;7.90;16.30;100588.00;;;;5029207;28;20479;-78
2021/07/02 02:58:26;;;;;;;17.07;13.13;;;15.40;6.90;16.30;100599.00;;;;5028491;28;21193;-79
2021/07/02 03:00:54;;;;;;;19.43;13.93;;;15.40;7.00;16.30;100598.00;;;;5034402;28;20444;-77
2021/07/02 03:03:23;;;;;;;17.30;14.27;;;15.40;6.90;16.30;100573.00;;;;5048436;28;20460;-76
2021/07/02 03:06:08;;;;;;;20.33;13.63;;;15.40;7.60;16.30;100601.00;;;;5043023;28;20512;-78
2021/07/02 03:08:37;;;;;;;16.33;12.77;;;15.40;7.80;16.30;100605.00;;;;5031111;28;20452;-76
2021/07/02 03:11:07;;;;;;;20.27;12.63;;;15.50;6.60;16.30;100607.00;;;;5046242;28;20456;-78
2021/07/02 03:13:37;;;;;;;22.10;13.57;;;15.50;6.90;16.30;100588.00;;;;5028066;28;21009;-77
2021/07/02 03:16:06;;;;;;;20.77;13.63;;;15.50;6.50;16.30;100599.00;;;;5027582;28;20475;-76
2021/07/02 03:18:42;;;;;;;18.73;14.33;;;15.40;6.60;16.30;100599.00;;;;5027434;28;22230;-76
2021/07/02 03:21:11;;;;;;;17.83;14.30;;;15.40;6.90;16.30;100588.00;;;;5046721;28;20476;-76
2021/07/02 03:23:40;;;;;;;15.50;12.70;;;15.40;5.70;16.30;100596.00;;;;5044004;28;21503;-77
2021/07/02 03:26:11;;;;;;;15.60;12.90;;;15.40;5.80;16.30;100583.00;;;;5028527;28;20507;-77
2021/07/02 03:28:40;;;;;;;17.73;14.60;;;15.50;5.60;16.40;100611.00;;;;5045517;28;20470;-77
2021/07/02 03:31:09;;;;;;;15.77;14.07;;;15.60;6.10;16.30;100592.00;;;;5046253;28;20481;-77
2021/07/02 03:33:39;;;;;;;18.47;14.27;;;15.50;6.30;16.20;100601.00;;;;5045924;28;21167;-78
2021/07/02 03:36:08;;;;;;;22.70;16.83;;;15.50;6.30;16.30;100606.00;;;;5063378;28;20535;-77
2021/07/02 03:38:37;;;;;;;17.33;14.37;;;15.50;5.90;16.40;100605.00;;;;5049226;28;20459;-78
2021/07/02 03:41:05;;;;;;;15.10;13.57;;;15.50;6.10;16.40;100612.00;;;;5055908;28;20552;-78
2021/07/02 03:43:36;;;;;;;15.23;12.77;;;15.50;5.80;16.30;100594.00;;;;5049166;28;20452;-77
2021/07/02 03:46:05;;;;;;;15.00;12.03;;;15.50;5.50;16.30;100601.00;;;;5047778;28;20489;-79
2021/07/02 03:48:34;;;;;;;14.70;12.70;;;15.50;5.10;16.30;100600.00;;;;5028771;28;20452;-77
2021/07/02 03:51:02;;;;;;;20.13;14.80;;;15.50;5.10;16.30;100603.00;;;;5046096;28;20456;-77
2021/07/02 03:53:31;;;;;;;14.67;13.10;;;15.50;5.60;16.30;100613.00;;;;5030132;28;20539;-77
2021/07/02 03:55:59;;;;;;;17.40;13.30;;;15.50;5.70;16.30;100591.00;;;;5027602;28;20534;-77
2021/07/02 03:58:28;;;;;;;16.37;13.20;;;15.50;5.10;16.40;100611.00;;;;5044398;28;20829;-78
2021/07/02 04:00:58;;;;;;;16.80;13.63;;;15.50;4.50;16.40;100613.00;;;;5044015;28;20961;-79
2021/07/02 04:03:28;;;;;;;18.00;12.77;;;15.50;4.20;16.50;100605.00;;;;5025106;28;20467;-78
2021/07/02 04:05:56;;;;;;;19.90;13.30;;;15.60;4.10;16.50;100597.00;;;;5025215;28;20485;-78
2021/07/02 04:08:25;;;;;;;21.17;15.07;;;15.60;4.70;16.50;100607.00;;;;5047136;28;20877;-78
2021/07/02 04:10:53;;;;;;;17.50;14.07;;;15.80;5.30;16.60;100574.00;;;;5039717;28;20474;-78
2021/07/02 04:13:22;;;;;;;18.07;14.60;;;15.80;5.50;16.70;100610.00;;;;5023873;28;20452;-79
2021/07/02 04:15:52;;;;;;;17.73;15.10;;;15.80;5.30;16.80;100603.00;;;;5043056;28;20479;-78
2021/07/02 04:18:22;;;;;;;20.10;15.63;;;15.90;5.40;16.80;100609.00;;;;5039718;28;20484;-79
2021/07/02 04:20:51;;;;;;;15.80;14.20;;;15.90;5.40;16.80;100615.00;;;;5024973;28;20435;-77
2021/07/02 04:23:19;;;;;;;17.20;14.70;;;15.90;5.30;16.80;100622.00;;;;5023124;28;20547;-78
2021/07/02 04:25:47;;;;;;;20.40;15.73;;;15.90;5.40;16.80;100615.00;;;;5039022;28;20472;-78
2021/07/02 04:28:16;;;;;;;21.67;16.10;;;15.90;5.40;16.80;100614.00;;;;5042566;28;20486;-77
2021/07/02 04:30:44;;;;;;;18.80;15.23;;;15.90;5.00;16.80;100599.00;;;;5040284;28;20925;-78
2021/07/02 04:33:13;;;;;;;18.43;14.07;;;15.90;4.70;16.90;100536.00;;;;5038061;28;20461;-77
2021/07/02 04:35:42;;;;;;;23.97;14.90;;;16.00;4.70;16.90;100626.00;;;;5048268;28;20468;-78
2021/07/02 04:38:11;;;;;;;20.70;15.63;;;16.00;4.40;17.00;100617.00;;;;5033857;28;20560;-78
2021/07/02 04:40:39;;;;;;;16.73;15.00;;;16.00;3.90;17.00;100628.00;;;;5043584;28;20460;-78
2021/07/02 04:43:07;;;;;;;16.97;14.20;;;16.00;3.50;17.00;100616.00;;;;5032015;28;20455;-77
2021/07/02 04:45:35;;;;;;;19.23;14.37;;;16.10;3.40;17.10;100630.00;;;;5031522;28;20535;-78
2021/07/02 04:48:05;;;;;;;21.07;14.93;;;16.10;3.00;17.10;100612.00;;;;5047496;28;20482;-78
2021/07/02 04:50:33;;;;;;;18.77;15.30;;;16.10;3.20;17.10;100623.00;;;;5048720;28;20463;-78
2021/07/02 04:53:03;;;;;;;18.13;15.07;;;16.10;3.10;17.00;100612.00;;;;5039503;28;21243;-77
2021/07/02 04:55:31;;;;;;;24.60;16.37;;;16.10;3.00;17.00;100613.00;;;;5042551;28;20484;-78
2021/07/02 04:57:59;;;;;;;18.50;14.33;;;16.20;3.30;17.00;100626.00;;;;5040640;28;20467;-77
2021/07/02 05:00:28;;;;;;;17.63;15.50;;;16.20;2.60;17.00;100614.00;;;;5041340;28;20460;-77
2021/07/02 05:02:56;;;;;;;23.40;17.00;;;16.30;2.10;17.00;100627.00;;;;5044005;28;20973;-75
2021/07/02 05:05:24;;;;;;;17.80;14.90;;;16.20;2.00;17.10;100588.00;;;;5025772;28;21000;-76
2021/07/02 05:07:53;;;;;;;17.07;15.20;;;16.20;1.10;17.10;100606.00;;;;5042071;28;20486;-76
2021/07/02 05:10:23;;;;;;;17.07;15.10;;;16.20;1.10;17.00;100627.00;;;;5041245;28;20464;-75
2021/07/02 05:12:51;;;;;;;18.37;16.23;;;16.20;1.40;17.00;100627.00;;;;5033683;28;20539;-77
2021/07/02 05:15:20;;;;;;;21.63;16.83;;;16.20;1.80;17.10;100631.00;;;;5026238;28;20504;-77
2021/07/02 05:17:48;;;;;;;17.93;15.77;;;16.30;1.20;17.20;100628.00;;;;5023842;28;20527;-78
2021/07/02 05:20:17;;;;;;;18.50;16.47;;;16.30;1.00;17.30;100622.00;;;;5024325;28;20546;-77
2021/07/02 05:22:45;;;;;;;19.40;15.60;;;16.40;1.00;17.50;100629.00;;;;5039227;28;20460;-78
2021/07/02 05:25:14;;;;;;;23.00;15.60;;;16.50;1.00;17.60;100629.00;;;;5044908;28;20541;-77
2021/07/02 05:27:43;;;;;;;19.27;15.67;;;16.70;1.00;17.70;100629.00;;;;5043976;28;21008;-78
2021/07/02 05:30:14;;;;;;;19.63;16.17;;;16.80;1.00;17.90;100620.00;;;;5023009;28;20464;-77
2021/07/02 05:32:42;;;;;;;19.53;16.10;;;16.90;1.00;18.00;100620.00;;;;5040425;28;20487;-77
2021/07/02 05:35:12;;;;;;;16.10;14.50;;;17.10;1.00;18.10;100626.00;;;;5023784;28;20479;-76
2021/07/02 05:37:43;;;;;;;17.60;14.63;;;17.20;1.00;18.30;100623.00;;;;5024677;28;20558;-77
2021/07/02 05:40:14;;;;;;;19.90;15.27;;;17.40;1.00;18.40;100621.00;;;;5026454;28;20498;-78
2021/07/02 05:42:44;;;;;;;18.90;14.67;;;17.50;1.00;18.60;100625.00;;;;5028401;28;20470;-78
2021/07/02 05:45:13;;;;;;;17.43;13.87;;;17.60;1.00;18.60;100634.00;;;;5040304;28;20479;-78
2021/07/02 05:47:47;;;;;;;15.47;13.53;;;17.60;1.00;18.70;100630.00;;;;5028574;28;20472;-77
2021/07/02 05:50:17;;;;;;;18.37;12.90;;;17.60;1.00;18.80;100613.00;;;;5023783;28;20463;-78
2021/07/02 05:52:46;;;;;;;17.20;12.83;;;17.90;1.00;18.90;100608.00;;;;5044125;28;20456;-78
2021/07/02 05:55:15;;;;;;;16.43;14.53;;;18.00;1.00;18.80;100644.00;;;;5045006;28;20476;-78
2021/07/02 05:57:44;;;;;;;17.20;14.23;;;18.00;1.00;18.70;100641.00;;;;5041946;28;20478;-77
2021/07/02 06:00:14;;;;;;;16.10;12.00;;;17.90;1.00;18.60;100640.00;;;;5043666;28;20467;-78
2021/07/02 06:02:42;;;;;;;14.37;11.70;;;17.70;1.00;18.40;100644.00;;;;5044677;28;20455;-78
2021/07/02 06:05:11;;;;;;;16.00;11.50;;;17.60;1.00;18.30;100600.00;;;;5041871;28;20558;-78
2021/07/02 06:07:47;;;;;;;16.67;12.20;;;17.60;1.00;18.30;100664.00;;;;5043241;28;21028;-78
2021/07/02 06:10:17;;;;;;;14.83;11.63;;;17.60;1.00;18.20;100662.00;;;;5044488;28;20526;-76
2021/07/02 06:12:48;;;;;;;17.07;12.10;;;17.50;1.00;18.10;100645.00;;;;5043852;28;20448;-76
2021/07/02 06:15:18;;;;;;;10.80;9.67;;;17.50;1.00;18.10;100618.00;;;;5042180;28;20483;-77
2021/07/02 06:17:49;;;;;;;12.47;10.80;;;17.50;1.00;18.20;100655.00;;;;5025155;28;20457;-77
2021/07/02 06:20:21;;;;;;;18.00;11.30;;;17.50;1.00;18.40;100620.00;;;;5041091;28;20476;-77
2021/07/02 06:22:49;;;;;;;11.97;10.37;;;17.70;1.00;18.40;100651.00;;;;5042289;28;20455;-76
2021/07/02 06:25:18;;;;;;;11.93;10.20;;;17.80;1.00;18.40;100633.00;;;;5029000;28;20484;-77
2021/07/02 06:27:48;;;;;;;15.77;11.50;;;17.80;1.00;18.80;100643.00;;;;5040471;28;20474;-76
2021/07/02 06:30:18;;;;;;;11.67;10.20;;;18.10;1.00;19.10;100638.00;;;;5037561;28;20979;-76
2021/07/02 06:32:48;;;;;;;14.33;9.73;;;18.40;1.00;19.10;100661.00;;;;5023363;28;20559;-77
2021/07/02 06:35:16;;;;;;;15.07;11.33;;;18.50;1.00;19.10;100665.00;;;;5030616;28;20479;-77
2021/07/02 06:37:49;;;;;;;13.63;10.40;;;18.50;1.00;19.20;100655.00;;;;5029755;28;20839;-77
2021/07/02 06:40:19;;;;;;;11.40;9.80;;;18.60;1.00;19.30;100652.00;;;;5058423;28;20951;-76
2021/07/02 06:42:49;;;;;;;11.40;10.00;;;18.60;1.00;19.30;100638.00;;;;5042872;28;20976;-77
2021/07/02 06:45:18;;;;;;;13.07;9.83;;;18.60;1.00;19.20;100661.00;;;;5045910;28;20472;-78
2021/07/02 06:47:52;;;;;;;15.50;9.63;;;18.60;1.00;19.20;100671.00;;;;5039149;28;20475;-77
2021/07/02 06:50:21;;;;;;;11.30;9.80;;;18.60;1.00;19.20;100669.00;;;;5054756;28;20513;-78
2021/07/02 06:52:49;;;;;;;17.00;10.57;;;18.60;1.00;19.20;100659.00;;;;5057083;28;20501;-77
2021/07/02 06:55:18;;;;;;;18.30;10.57;;;18.70;1.00;19.30;100666.00;;;;5060473;28;20468;-77
2021/07/02 06:57:48;;;;;;;16.70;10.83;;;18.80;1.00;19.70;100633.00;;;;5054019;28;20459;-78
2021/07/02 07:00:18;;;;;;;12.80;10.40;;;18.90;1.00;20.00;100664.00;;;;5057910;28;20457;-78
2021/07/02 07:02:47;;;;;;;15.87;11.60;;;19.20;1.00;20.10;100672.00;;;;5039810;28;20461;-78
2021/07/02 07:05:17;;;;;;;13.00;9.87;;;19.40;1.00;20.10;100645.00;;;;5056975;28;20547;-77
2021/07/02 07:07:46;;;;;;;11.20;9.50;;;19.50;1.00;20.10;100673.00;;;;5039492;28;20479;-77
2021/07/02 07:10:15;;;;;;;12.97;10.23;;;19.40;1.00;20.10;100677.00;;;;5040677;28;20472;-78
2021/07/02 07:12:43;;;;;;;12.33;10.00;;;19.30;1.00;20.20;100674.00;;;;5055061;28;20451;-76
2021/07/02 07:15:15;;;;;;;13.13;10.70;;;19.30;1.00;20.20;100670.00;;;;5065000;28;20467;-76
2021/07/02 07:17:44;;;;;;;12.47;9.57;;;19.20;1.00;20.20;100689.00;;;;5064085;28;20447;-78
2021/07/02 07:20:13;;;;;;;14.17;9.67;;;19.20;1.00;20.30;100679.00;;;;5071326;28;20436;-77
2021/07/02 07:22:42;;;;;;;12.40;9.40;;;19.20;1.00;20.20;100684.00;;;;5055422;28;20586;-77
2021/07/02 07:25:12;;;;;;;10.80;9.00;;;19.10;1.00;20.10;100678.00;;;;5046218;28;20471;-77
2021/07/02 07:27:43;;;;;;;10.80;9.33;;;19.00;1.00;20.20;100676.00;;;;5048437;28;20462;-78
2021/07/02 07:30:15;;;;;;;13.50;10.20;;;19.10;1.00;20.90;100648.00;;;;5046675;28;20542;-78
2021/07/02 07:32:46;;;;;;;12.70;10.60;;;19.80;1.00;21.30;100652.00;;;;5027117;28;20456;-77
2021/07/02 07:35:20;;;;;;;11.30;9.10;;;20.30;1.00;21.40;100654.00;;;;5044211;28;20508;-77
2021/07/02 07:37:53;;;;;;;11.30;10.10;;;20.60;1.00;21.00;100678.00;;;;5043465;28;20467;-77
2021/07/02 07:40:23;;;;;;;13.87;10.67;;;20.30;1.00;21.00;100683.00;;;;5044528;28;20475;-77
2021/07/02 07:42:52;;;;;;;13.60;11.50;;;20.10;1.00;20.40;100694.00;;;;5044280;28;20543;-77
2021/07/02 07:45:23;;;;;;;14.90;10.70;;;19.60;1.00;20.10;100695.00;;;;5046635;28;20503;-78
2021/07/02 07:47:52;;;;;;;14.07;11.07;;;19.30;1.00;20.10;100698.00;;;;5047602;28;20436;-78
2021/07/02 07:50:23;;;;;;;15.80;10.40;;;19.20;1.00;20.30;100674.00;;;;5032775;28;20964;-76
2021/07/02 07:52:55;;;;;;;15.13;10.20;;;19.40;1.00;20.80;100681.00;;;;5024418;28;20458;-78
2021/07/02 07:55:23;;;;;;;12.50;9.50;;;19.90;1.00;20.80;100675.00;;;;5023323;28;20480;-76
2021/07/02 07:57:52;;;;;;;12.10;10.00;;;20.00;1.00;21.00;100674.00;;;;5024683;28;21660;-76
2021/07/02 08:00:23;;;;;;;11.30;10.20;;;20.20;1.00;21.60;100666.00;;;;5024255;28;20479;-77
2021/07/02 08:02:51;;;;;;;13.47;9.80;;;20.60;1.00;21.60;100676.00;;;;5042469;28;20458;-77
2021/07/02 08:05:20;;;;;;;12.60;9.10;;;20.90;1.00;21.60;100685.00;;;;5044164;28;20480;-77
2021/07/02 08:07:48;;;;;;;13.63;9.07;;;20.90;1.00;21.50;100684.00;;;;5044288;28;20456;-77
2021/07/02 08:10:21;;;;;;;11.47;9.30;;;20.90;1.00;21.50;100663.00;;;;5045034;28;20472;-77
2021/07/02 08:12:49;;;;;;;12.30;9.37;;;20.80;1.00;21.60;100685.00;;;;5046465;28;20464;-77
2021/07/02 08:15:19;;;;;;;11.33;9.90;;;20.60;1.00;21.90;100696.00;;;;5045996;28;20533;-77
2021/07/02 08:17:48;;;;;;;12.77;8.37;;;20.80;1.00;22.20;100688.00;;;;5028169;28;20468;-77
2021/07/02 08:20:17;;;;;;;10.43;8.43;;;21.10;1.00;22.00;100682.00;;;;5043336;28;20452;-77
2021/07/02 08:22:45;;;;;;;10.80;8.77;;;21.00;1.00;22.10;100690.00;;;;5040587;28;20461;-77
2021/07/02 08:25:15;;;;;;;8.90;8.00;;;20.90;1.00;22.10;100693.00;;;;5035576;28;20514;-76
2021/07/02 08:30:29;;;;;;;9.70;8.70;;;21.00;1.00;22.20;100698.00;;;;5037309;28;20467;-76
2021/07/02 08:32:59;;;;;;;9.57;8.50;;;21.20;1.00;22.00;100674.00;;;;5037529;28;20460;-77
2021/07/02 08:35:27;;;;;;;11.80;7.60;;;21.00;1.00;21.90;100703.00;;;;5041688;28;20514;-76
2021/07/02 08:37:57;;;;;;;9.63;7.20;;;20.80;1.00;21.70;100684.00;;;;5047528;28;20464;-76
2021/07/02 08:40:26;;;;;;;9.80;8.10;;;20.80;1.00;22.00;100674.00;;;;5040351;28;20464;-77
2021/07/02 08:42:55;;;;;;;8.47;7.77;;;21.10;1.00;22.20;100649.00;;;;5041601;28;20462;-77
2021/07/02 08:45:23;;;;;;;9.10;7.53;;;21.50;1.00;22.60;100652.00;;;;5044241;28;20471;-77
2021/07/02 08:47:53;;;;;;;9.20;7.43;;;21.80;1.00;22.70;100679.00;;;;5025017;28;20463;-76
2021/07/02 08:50:23;;;;;;;8.80;7.77;;;21.90;1.00;22.60;100698.00;;;;5044360;28;20577;-77
2021/07/02 08:52:52;;;;;;;9.70;8.40;;;21.70;1.00;22.80;100688.00;;;;5027574;28;20457;-77
2021/07/02 08:55:21;;;;;;;8.57;7.33;;;21.90;1.00;22.50;100700.00;;;;5043351;28;20487;-77
2021/07/02 08:57:50;;;;;;;12.03;7.43;;;21.70;1.00;22.30;100693.00;;;;5041992;28;20772;-77
2021/07/02 09:00:20;;;;;;;10.40;8.53;;;21.50;1.00;22.50;100679.00;;;;5043249;28;20546;-76
2021/07/02 09:02:49;;;;;;;8.43;7.10;;;21.80;1.00;22.60;100684.00;;;;5025036;28;20595;-75
2021/07/02 09:05:35;;;;;;;8.43;7.50;;;21.90;1.00;22.60;100681.00;;;;5026600;28;20478;-76
2021/07/02 09:08:14;;;;;;;10.67;7.63;;;22.00;1.00;22.70;100705.00;;;;5029475;28;20785;-76
2021/07/02 09:10:47;;;;;;;10.87;8.53;;;22.20;1.00;23.00;100700.00;;;;5043481;28;20486;-76
2021/07/02 09:13:16;;;;;;;11.00;9.90;;;22.40;1.00;23.40;100672.00;;;;5047818;28;20559;-77
2021/07/02 09:15:48;;;;;;;8.57;7.67;;;22.70;1.00;23.60;100655.00;;;;5025779;28;20563;-76
2021/07/02 09:18:18;;;;;;;9.90;7.13;;;22.90;1.00;23.60;100685.00;;;;5045264;28;20448;-76
2021/07/02 09:20:48;;;;;;;7.67;6.20;;;22.80;1.00;23.40;100692.00;;;;5049349;28;20455;-77
2021/07/02 09:23:18;;;;;;;10.23;6.77;;;22.60;1.00;23.30;100697.00;;;;5052294;28;20448;-77
2021/07/02 09:25:52;;;;;;;7.03;6.20;;;22.60;1.00;23.10;100703.00;;;;5049015;28;20490;-76
2021/07/02 09:28:31;;;;;;;7.67;6.80;;;22.40;1.00;22.80;100690.00;;;;5067876;28;20471;-77
2021/07/02 09:30:59;;;;;;;7.30;6.60;;;22.20;1.00;23.30;100674.00;;;;5062158;28;20490;-77
2021/07/02 09:33:30;;;;;;;7.67;5.70;;;22.70;1.00;23.70;100683.00;;;;5059110;28;20478;-76
2021/07/02 09:36:00;;;;;;;9.90;6.97;;;23.10;1.00;23.60;100696.00;;;;5069021;28;20544;-76
2021/07/02 09:38:36;;;;;;;8.13;6.60;;;23.00;1.00;23.50;100673.00;;;;5063447;28;20467;-76
2021/07/02 09:41:07;;;;;;;6.90;5.77;;;22.90;1.00;23.80;100685.00;;;;5047486;28;20554;-77
2021/07/02 09:43:38;;;;;;;8.27;6.03;;;23.20;1.00;23.90;100667.00;;;;5027568;28;20450;-77
2021/07/02 09:46:08;;;;;;;7.87;6.50;;;23.50;1.00;23.50;100692.00;;;;5047253;28;20863;-77
2021/07/02 09:48:42;;;;;;;6.63;5.93;;;23.10;1.00;23.20;100706.00;;;;5047885;28;20463;-77
2021/07/02 09:51:13;;;;;;;11.00;7.33;;;22.60;1.00;23.00;100682.00;;;;5045307;28;20646;-77
2021/07/02 09:53:43;;;;;;;7.87;7.10;;;22.40;1.00;23.20;100668.00;;;;5045282;28;20459;-76
2021/07/02 09:56:20;;;;;;;6.97;6.30;;;22.60;1.00;22.60;100696.00;;;;5043895;28;20493;-75
2021/07/02 09:58:48;;;;;;;9.27;6.83;;;22.70;1.00;23.20;100697.00;;;;5026091;28;20535;-77
2021/07/02 10:01:25;;;;;;;7.73;6.97;;;23.00;1.00;23.40;100691.00;;;;5044301;28;20964;-77
2021/07/02 10:03:54;;;;;;;6.40;5.70;;;23.20;1.00;23.30;100695.00;;;;5027872;28;20459;-76
2021/07/02 10:06:27;;;;;;;7.03;6.00;;;23.30;1.00;23.40;100657.00;;;;5029076;28;20470;-75
2021/07/02 10:08:59;;;;;;;9.40;6.37;;;23.30;1.00;23.10;100711.00;;;;5038033;28;21623;-76
2021/07/02 10:11:28;;;;;;;9.60;6.47;;;22.90;1.00;23.30;100698.00;;;;5030937;28;20495;-75
2021/07/02 10:13:58;;;;;;;10.03;5.73;;;23.10;1.00;23.50;100693.00;;;;5039849;28;20547;-76
2021/07/02 10:16:27;;;;;;;6.90;6.20;;;23.40;1.00;23.80;100708.00;;;;5042129;28;20444;-76
2021/07/02 10:19:00;;;;;;;8.80;6.27;;;23.70;1.00;24.10;100699.00;;;;5022891;28;20467;-76
2021/07/02 10:21:33;;;;;;;8.77;6.17;;;24.10;1.00;24.60;100689.00;;;;5036417;28;20455;-76
2021/07/02 10:24:07;;;;;;;6.47;5.60;;;24.50;1.00;24.90;100697.00;;;;5038795;28;21656;-76
2021/07/02 10:26:37;;;;;;;6.93;5.60;;;24.70;1.00;24.70;100669.00;;;;5035920;28;20458;-76
2021/07/02 10:29:06;;;;;;;8.97;5.70;;;24.40;1.00;24.90;100705.00;;;;5038090;28;20448;-76
2021/07/02 10:31:35;;;;;;;9.20;5.83;;;24.30;1.00;24.70;100676.00;;;;5039065;28;20489;-77
2021/07/02 10:34:05;;;;;;;7.43;5.70;;;24.10;1.00;24.50;100622.00;;;;5039766;28;20502;-78
2021/07/02 10:36:38;;;;;;;8.00;6.40;;;23.90;1.00;24.20;100717.00;;;;5045602;28;20459;-77
2021/07/02 10:39:30;;;;;;;11.13;5.67;;;23.40;1.00;24.00;100719.00;;;;5068054;28;20527;-76
2021/07/02 10:42:08;;;;;;;6.63;5.40;;;23.20;1.00;24.10;100687.00;;;;5059065;28;20459;-78
2021/07/02 10:45:08;;;;;;;7.03;5.83;;;23.00;1.00;24.20;100677.00;;;;5046554;28;20479;-78
2021/07/02 10:47:52;;;;;;;6.83;5.70;;;23.10;1.00;24.60;100699.00;;;;5046230;28;20480;-76
2021/07/02 10:50:45;;;;;;;7.20;6.47;;;23.90;1.00;24.30;100713.00;;;;5039444;28;21418;-77
2021/07/02 10:53:29;;;;;;;10.63;5.90;;;23.80;1.00;24.10;100663.00;;;;5044136;28;20447;-77
2021/07/02 10:55:58;;;;;;;6.80;5.87;;;23.70;1.00;24.30;100701.00;;;;5042672;28;20549;-76
2021/07/02 10:58:54;;;;;;;6.93;5.93;;;23.90;1.00;24.10;100699.00;;;;5036476;28;20547;-75